createdAt,value
2023-11-30T00:00:20.546Z,754.00
2023-11-30T00:00:50.588Z,754.00
2023-11-30T00:01:20.671Z,756.00
2023-11-30T00:01:50.718Z,758.00
2023-11-30T00:02:20.774Z,756.00
2023-11-30T00:02:50.760Z,764.00
2023-11-30T00:03:51.030Z,763.00
2023-11-30T00:04:20.953Z,770.00
2023-11-30T00:04:50.982Z,761.00
2023-11-30T00:05:23.454Z,767.00
2023-11-30T00:05:51.122Z,755.00
2023-11-30T00:06:21.158Z,753.00
2023-11-30T00:06:51.143Z,756.00
2023-11-30T00:07:21.157Z,757.00
2023-11-30T00:07:51.150Z,750.00
2023-11-30T00:08:21.153Z,755.00
2023-11-30T00:08:51.222Z,757.00
2023-11-30T00:09:21.305Z,753.00
2023-11-30T00:09:51.326Z,753.00
2023-11-30T00:10:21.326Z,750.00
2023-11-30T00:10:51.332Z,745.00
2023-11-30T00:11:21.354Z,750.00
2023-11-30T00:11:51.396Z,746.00
2023-11-30T00:12:21.412Z,739.00
2023-11-30T00:12:51.419Z,752.00
2023-11-30T00:13:21.421Z,752.00
2023-11-30T00:13:51.443Z,757.00
2023-11-30T00:14:51.583Z,748.00
2023-11-30T00:15:21.712Z,749.00
2023-11-30T00:15:51.598Z,744.00
2023-11-30T00:16:21.645Z,742.00
2023-11-30T00:16:51.705Z,747.00
2023-11-30T00:17:21.660Z,745.00
2023-11-30T00:17:51.795Z,743.00
2023-11-30T00:18:21.855Z,742.00
2023-11-30T00:18:51.872Z,742.00
2023-11-30T00:19:21.888Z,748.00
2023-11-30T00:19:51.957Z,750.00
2023-11-30T00:20:22.076Z,747.00
2023-11-30T00:20:52.233Z,746.00
2023-11-30T00:21:22.357Z,746.00
2023-11-30T00:21:52.300Z,750.00
2023-11-30T00:22:22.389Z,744.00
2023-11-30T00:22:52.468Z,750.00
2023-11-30T00:23:22.551Z,751.00
2023-11-30T00:23:52.704Z,749.00
2023-11-30T00:24:22.753Z,752.00
2023-11-30T00:24:52.716Z,739.00
2023-11-30T00:25:22.797Z,741.00
2023-11-30T00:25:52.889Z,742.00
2023-11-30T00:26:22.897Z,749.00
2023-11-30T00:26:52.930Z,750.00
2023-11-30T00:27:23.008Z,749.00
2023-11-30T00:27:52.996Z,747.00
2023-11-30T00:28:23.058Z,747.00
2023-11-30T00:28:53.065Z,746.00
2023-11-30T00:29:23.061Z,746.00
2023-11-30T00:30:23.181Z,742.00
2023-11-30T00:30:53.210Z,749.00
2023-11-30T00:31:23.238Z,751.00
2023-11-30T00:31:53.260Z,729.00
2023-11-30T00:32:23.257Z,752.00
2023-11-30T00:32:53.331Z,743.00
2023-11-30T00:33:23.450Z,736.00
2023-11-30T00:33:53.373Z,738.00
2023-11-30T00:34:53.460Z,740.00
2023-11-30T00:35:23.454Z,734.00
2023-11-30T00:35:53.468Z,735.00
2023-11-30T00:36:23.491Z,740.00
2023-11-30T00:36:53.487Z,738.00
2023-11-30T00:37:23.484Z,743.00
2023-11-30T00:38:23.567Z,740.00
2023-11-30T00:38:53.609Z,737.00
2023-11-30T00:39:23.583Z,735.00
2023-11-30T00:39:53.659Z,736.00
2023-11-30T00:40:23.708Z,743.00
2023-11-30T00:40:53.704Z,745.00
2023-11-30T00:41:23.771Z,739.00
2023-11-30T00:41:53.808Z,736.00
2023-11-30T00:42:23.901Z,736.00
2023-11-30T00:42:53.993Z,738.00
2023-11-30T00:43:24.028Z,738.00
2023-11-30T00:43:54.030Z,740.00
2023-11-30T00:44:24.028Z,741.00
2023-11-30T00:45:24.210Z,742.00
2023-11-30T00:46:03.258Z,737.00
2023-11-30T00:46:24.232Z,738.00
2023-11-30T00:46:54.280Z,747.00
2023-11-30T00:47:24.291Z,742.00
2023-11-30T00:47:54.345Z,736.00
2023-11-30T00:48:24.452Z,740.00
2023-11-30T00:48:54.392Z,734.00
2023-11-30T00:49:24.375Z,741.00
2023-11-30T00:50:24.477Z,736.00
2023-11-30T00:50:54.600Z,731.00
2023-11-30T00:51:24.620Z,736.00
2023-11-30T00:51:54.652Z,733.00
2023-11-30T00:52:24.709Z,737.00
2023-11-30T00:52:54.715Z,737.00
2023-11-30T00:53:24.711Z,741.00
2023-11-30T00:53:54.753Z,739.00
2023-11-30T00:54:24.762Z,738.00
2023-11-30T00:54:54.766Z,739.00
2023-11-30T00:55:24.768Z,736.00
2023-11-30T00:55:54.774Z,728.00
2023-11-30T00:56:24.782Z,737.00
2023-11-30T00:56:54.801Z,723.00
2023-11-30T00:57:24.809Z,729.00
2023-11-30T00:57:54.851Z,731.00
2023-11-30T00:58:24.847Z,727.00
2023-11-30T00:58:54.864Z,723.00
2023-11-30T00:59:24.860Z,734.00
2023-11-30T00:59:54.894Z,734.00
2023-11-30T01:00:24.923Z,732.00
2023-11-30T01:00:55.007Z,729.00
2023-11-30T01:01:25.041Z,726.00
2023-11-30T01:01:55.097Z,723.00
2023-11-30T01:02:25.132Z,729.00
2023-11-30T01:02:55.149Z,726.00
2023-11-30T01:03:25.224Z,726.00
2023-11-30T01:03:55.294Z,725.00
2023-11-30T01:04:25.397Z,723.00
2023-11-30T01:04:55.384Z,731.00
2023-11-30T01:05:25.393Z,729.00
2023-11-30T01:05:55.423Z,729.00
2023-11-30T01:06:25.441Z,733.00
2023-11-30T01:06:55.443Z,732.00
2023-11-30T01:07:25.424Z,725.00
2023-11-30T01:07:55.503Z,730.00
2023-11-30T01:08:25.520Z,721.00
2023-11-30T01:08:55.560Z,723.00
2023-11-30T01:09:25.613Z,726.00
2023-11-30T01:09:55.635Z,722.00
2023-11-30T01:10:25.632Z,722.00
2023-11-30T01:10:55.634Z,723.00
2023-11-30T01:11:25.641Z,726.00
2023-11-30T01:11:55.675Z,726.00
2023-11-30T01:12:25.687Z,726.00
2023-11-30T01:12:55.681Z,726.00
2023-11-30T01:13:25.699Z,729.00
2023-11-30T01:13:55.698Z,731.00
2023-11-30T01:14:25.707Z,732.00
2023-11-30T01:14:55.731Z,724.00
2023-11-30T01:15:25.773Z,717.00
2023-11-30T01:15:55.782Z,717.00
2023-11-30T01:16:25.797Z,724.00
2023-11-30T01:16:55.870Z,726.00
2023-11-30T01:17:25.976Z,722.00
2023-11-30T01:17:56.050Z,715.00
2023-11-30T01:18:26.204Z,711.00
2023-11-30T01:18:56.084Z,709.00
2023-11-30T01:19:26.207Z,712.00
2023-11-30T01:19:56.213Z,716.00
2023-11-30T01:20:26.268Z,717.00
2023-11-30T01:20:56.397Z,717.00
2023-11-30T01:21:26.460Z,718.00
2023-11-30T01:21:56.464Z,715.00
2023-11-30T01:22:26.529Z,720.00
2023-11-30T01:22:56.613Z,714.00
2023-11-30T01:23:26.701Z,716.00
2023-11-30T01:23:56.825Z,716.00
2023-11-30T01:24:26.919Z,713.00
2023-11-30T01:24:56.972Z,707.00
2023-11-30T01:25:27.059Z,710.00
2023-11-30T01:25:57.137Z,711.00
2023-11-30T01:26:27.239Z,706.00
2023-11-30T01:26:57.255Z,714.00
2023-11-30T01:27:27.292Z,712.00
2023-11-30T01:27:57.277Z,709.00
2023-11-30T01:28:27.284Z,711.00
2023-11-30T01:28:57.285Z,707.00
2023-11-30T01:29:27.283Z,703.00
2023-11-30T01:30:27.391Z,708.00
2023-11-30T01:30:57.366Z,709.00
2023-11-30T01:31:57.435Z,711.00
2023-11-30T01:32:27.540Z,712.00
2023-11-30T01:33:27.637Z,701.00
2023-11-30T01:33:57.518Z,708.00
2023-11-30T01:34:57.605Z,711.00
2023-11-30T01:35:27.666Z,718.00
2023-11-30T01:35:57.668Z,709.00
2023-11-30T01:36:57.771Z,708.00
2023-11-30T01:37:27.762Z,701.00
2023-11-30T01:37:57.776Z,703.00
2023-11-30T01:38:27.778Z,709.00
2023-11-30T01:38:57.842Z,706.00
2023-11-30T01:39:27.985Z,711.00
2023-11-30T01:39:57.892Z,707.00
2023-11-30T01:40:27.905Z,711.00
2023-11-30T01:40:57.909Z,710.00
2023-11-30T01:41:27.934Z,703.00
2023-11-30T01:41:58.025Z,723.00
2023-11-30T01:42:28.042Z,713.00
2023-11-30T01:42:58.021Z,708.00
2023-11-30T01:43:28.027Z,708.00
2023-11-30T01:43:58.096Z,712.00
2023-11-30T01:44:28.078Z,718.00
2023-11-30T01:44:58.151Z,708.00
2023-11-30T01:45:28.190Z,708.00
2023-11-30T01:46:03.498Z,710.00
2023-11-30T01:46:28.387Z,709.00
2023-11-30T01:46:58.386Z,712.00
2023-11-30T01:47:28.401Z,710.00
2023-11-30T01:47:58.449Z,713.00
2023-11-30T01:48:28.517Z,708.00
2023-11-30T01:48:58.534Z,711.00
2023-11-30T01:49:28.525Z,726.00
2023-11-30T01:49:58.523Z,717.00
2023-11-30T01:50:28.528Z,729.00
2023-11-30T01:50:58.642Z,719.00
2023-11-30T01:51:28.660Z,712.00
2023-11-30T01:51:58.653Z,707.00
2023-11-30T01:52:28.676Z,709.00
2023-11-30T01:52:58.693Z,706.00
2023-11-30T01:53:28.699Z,705.00
2023-11-30T01:53:58.739Z,713.00
2023-11-30T01:54:28.805Z,704.00
2023-11-30T01:54:58.797Z,709.00
2023-11-30T01:55:28.800Z,706.00
2023-11-30T01:55:58.814Z,706.00
2023-11-30T01:56:28.822Z,706.00
2023-11-30T01:56:58.855Z,704.00
2023-11-30T01:57:28.878Z,702.00
2023-11-30T01:57:58.849Z,705.00
2023-11-30T01:58:28.854Z,701.00
2023-11-30T01:58:58.872Z,702.00
2023-11-30T01:59:28.888Z,697.00
2023-11-30T02:00:29.063Z,700.00
2023-11-30T02:00:59.134Z,700.00
2023-11-30T02:01:29.303Z,699.00
2023-11-30T02:01:59.412Z,698.00
2023-11-30T02:02:29.258Z,697.00
2023-11-30T02:02:59.355Z,696.00
2023-11-30T02:03:29.307Z,703.00
2023-11-30T02:03:59.418Z,698.00
2023-11-30T02:04:29.463Z,700.00
2023-11-30T02:04:59.491Z,704.00
2023-11-30T02:05:29.493Z,704.00
2023-11-30T02:05:59.542Z,705.00
2023-11-30T02:06:29.603Z,702.00
2023-11-30T02:06:59.610Z,706.00
2023-11-30T02:07:29.619Z,702.00
2023-11-30T02:07:59.612Z,702.00
2023-11-30T02:08:59.699Z,698.00
2023-11-30T02:09:29.730Z,703.00
2023-11-30T02:09:59.769Z,700.00
2023-11-30T02:10:29.755Z,696.00
2023-11-30T02:11:29.841Z,699.00
2023-11-30T02:11:59.853Z,707.00
2023-11-30T02:12:59.922Z,696.00
2023-11-30T02:13:29.925Z,696.00
2023-11-30T02:13:59.943Z,694.00
2023-11-30T02:14:29.929Z,694.00
2023-11-30T02:14:59.962Z,693.00
2023-11-30T02:15:30.011Z,696.00
2023-11-30T02:16:00.035Z,698.00
2023-11-30T02:16:30.140Z,695.00
2023-11-30T02:17:00.097Z,698.00
2023-11-30T02:17:30.250Z,698.00
2023-11-30T02:18:00.478Z,696.00
2023-11-30T02:18:30.268Z,695.00
2023-11-30T02:19:00.239Z,699.00
2023-11-30T02:19:30.342Z,697.00
2023-11-30T02:20:00.408Z,694.00
2023-11-30T02:20:30.483Z,698.00
2023-11-30T02:21:00.601Z,699.00
2023-11-30T02:21:30.600Z,703.00
2023-11-30T02:22:00.614Z,699.00
2023-11-30T02:22:30.667Z,714.00
2023-11-30T02:23:00.756Z,700.00
2023-11-30T02:23:30.822Z,704.00
2023-11-30T02:24:00.956Z,704.00
2023-11-30T02:24:30.945Z,708.00
2023-11-30T02:25:00.944Z,698.00
2023-11-30T02:25:31.014Z,702.00
2023-11-30T02:26:01.037Z,700.00
2023-11-30T02:26:31.107Z,700.00
2023-11-30T02:27:01.161Z,702.00
2023-11-30T02:27:31.215Z,694.00
2023-11-30T02:28:01.230Z,698.00
2023-11-30T02:28:31.245Z,696.00
2023-11-30T02:29:01.243Z,695.00
2023-11-30T02:29:31.252Z,695.00
2023-11-30T02:30:01.260Z,695.00
2023-11-30T02:30:31.314Z,698.00
2023-11-30T02:31:01.348Z,687.00
2023-11-30T02:31:31.383Z,687.00
2023-11-30T02:32:01.421Z,701.00
2023-11-30T02:32:31.420Z,694.00
2023-11-30T02:33:01.595Z,690.00
2023-11-30T02:33:31.572Z,692.00
2023-11-30T02:34:01.561Z,692.00
2023-11-30T02:34:31.542Z,695.00
2023-11-30T02:35:01.543Z,694.00
2023-11-30T02:35:31.548Z,694.00
2023-11-30T02:36:01.583Z,683.00
2023-11-30T02:36:31.603Z,692.00
2023-11-30T02:37:01.638Z,700.00
2023-11-30T02:37:31.646Z,697.00
2023-11-30T02:38:01.622Z,697.00
2023-11-30T02:39:01.733Z,697.00
2023-11-30T02:39:31.765Z,694.00
2023-11-30T02:40:01.755Z,692.00
2023-11-30T02:40:31.760Z,696.00
2023-11-30T02:41:01.769Z,696.00
2023-11-30T02:41:31.770Z,695.00
2023-11-30T02:42:01.785Z,692.00
2023-11-30T02:42:31.805Z,693.00
2023-11-30T02:43:01.822Z,691.00
2023-11-30T02:43:31.819Z,688.00
2023-11-30T02:44:01.856Z,685.00
2023-11-30T02:44:31.872Z,687.00
2023-11-30T02:45:01.929Z,685.00
2023-11-30T02:45:31.977Z,684.00
2023-11-30T02:46:02.002Z,685.00
2023-11-30T02:46:32.097Z,686.00
2023-11-30T02:47:02.106Z,686.00
2023-11-30T02:47:32.131Z,685.00
2023-11-30T02:48:02.256Z,686.00
2023-11-30T02:48:32.216Z,689.00
2023-11-30T02:49:02.212Z,685.00
2023-11-30T02:49:32.183Z,693.00
2023-11-30T02:50:32.280Z,689.00
2023-11-30T02:51:02.315Z,689.00
2023-11-30T02:51:32.345Z,689.00
2023-11-30T02:52:02.335Z,689.00
2023-11-30T02:52:32.319Z,694.00
2023-11-30T02:53:02.346Z,687.00
2023-11-30T02:53:32.318Z,688.00
2023-11-30T02:54:32.422Z,685.00
2023-11-30T02:55:02.479Z,691.00
2023-11-30T02:55:32.466Z,692.00
2023-11-30T02:56:02.480Z,685.00
2023-11-30T02:56:32.474Z,691.00
2023-11-30T02:57:02.500Z,696.00
2023-11-30T02:57:32.565Z,693.00
2023-11-30T02:58:02.566Z,689.00
2023-11-30T02:58:32.567Z,690.00
2023-11-30T02:59:02.578Z,690.00
2023-11-30T02:59:32.689Z,692.00
2023-11-30T03:00:02.750Z,690.00
2023-11-30T03:00:32.831Z,685.00
2023-11-30T03:01:02.854Z,687.00
2023-11-30T03:01:32.965Z,692.00
2023-11-30T03:02:02.996Z,688.00
2023-11-30T03:02:33.016Z,680.00
2023-11-30T03:03:03.175Z,679.00
2023-11-30T03:03:33.313Z,684.00
2023-11-30T03:04:03.173Z,685.00
2023-11-30T03:04:33.164Z,680.00
2023-11-30T03:05:03.174Z,677.00
2023-11-30T03:05:33.200Z,676.00
2023-11-30T03:06:03.203Z,678.00
2023-11-30T03:06:33.252Z,680.00
2023-11-30T03:07:03.260Z,683.00
2023-11-30T03:07:33.258Z,681.00
2023-11-30T03:08:03.260Z,685.00
2023-11-30T03:08:33.294Z,682.00
2023-11-30T03:09:03.287Z,680.00
2023-11-30T03:10:03.350Z,677.00
2023-11-30T03:10:33.356Z,676.00
2023-11-30T03:11:03.360Z,676.00
2023-11-30T03:11:33.523Z,677.00
2023-11-30T03:12:03.429Z,679.00
2023-11-30T03:12:33.452Z,675.00
2023-11-30T03:13:03.558Z,677.00
2023-11-30T03:13:33.624Z,677.00
2023-11-30T03:14:03.660Z,677.00
2023-11-30T03:14:33.654Z,679.00
2023-11-30T03:15:03.740Z,681.00
2023-11-30T03:15:33.684Z,677.00
2023-11-30T03:16:03.701Z,686.00
2023-11-30T03:16:33.737Z,688.00
2023-11-30T03:17:03.715Z,682.00
2023-11-30T03:17:33.792Z,681.00
2023-11-30T03:18:04.107Z,690.00
2023-11-30T03:18:34.011Z,677.00
2023-11-30T03:19:33.998Z,680.00
2023-11-30T03:20:04.329Z,684.00
2023-11-30T03:20:34.166Z,681.00
2023-11-30T03:21:34.294Z,681.00
2023-11-30T03:22:04.370Z,682.00
2023-11-30T03:22:34.446Z,681.00
2023-11-30T03:23:04.519Z,678.00
2023-11-30T03:23:34.589Z,679.00
2023-11-30T03:24:04.714Z,677.00
2023-11-30T03:24:34.820Z,674.00
2023-11-30T03:25:04.778Z,668.00
2023-11-30T03:25:34.854Z,682.00
2023-11-30T03:26:04.928Z,668.00
2023-11-30T03:26:35.027Z,676.00
2023-11-30T03:27:05.037Z,670.00
2023-11-30T03:27:35.051Z,674.00
2023-11-30T03:28:05.045Z,675.00
2023-11-30T03:28:35.057Z,673.00
2023-11-30T03:29:05.088Z,678.00
2023-11-30T03:29:35.116Z,670.00
2023-11-30T03:30:05.135Z,675.00
2023-11-30T03:30:35.168Z,672.00
2023-11-30T03:31:05.147Z,672.00
2023-11-30T03:31:37.640Z,673.00
2023-11-30T03:32:05.261Z,681.00
2023-11-30T03:32:35.317Z,675.00
2023-11-30T03:33:05.384Z,674.00
2023-11-30T03:33:35.361Z,670.00
2023-11-30T03:34:05.390Z,670.00
2023-11-30T03:34:35.394Z,672.00
2023-11-30T03:35:05.510Z,673.00
2023-11-30T03:35:35.507Z,673.00
2023-11-30T03:36:05.665Z,669.00
2023-11-30T03:36:35.675Z,667.00
2023-11-30T03:37:05.649Z,667.00
2023-11-30T03:37:35.639Z,663.00
2023-11-30T03:38:05.640Z,665.00
2023-11-30T03:38:35.665Z,668.00
2023-11-30T03:39:05.745Z,671.00
2023-11-30T03:39:35.811Z,678.00
2023-11-30T03:40:05.794Z,667.00
2023-11-30T03:40:35.793Z,669.00
2023-11-30T03:41:05.800Z,671.00
2023-11-30T03:41:35.797Z,673.00
2023-11-30T03:42:05.822Z,676.00
2023-11-30T03:42:35.858Z,675.00
2023-11-30T03:43:05.868Z,674.00
2023-11-30T03:43:35.883Z,671.00
2023-11-30T03:44:05.920Z,679.00
2023-11-30T03:44:35.948Z,678.00
2023-11-30T03:45:05.959Z,670.00
2023-11-30T03:45:36.385Z,669.00
2023-11-30T03:46:06.034Z,666.00
2023-11-30T03:46:36.073Z,665.00
2023-11-30T03:47:06.081Z,667.00
2023-11-30T03:47:36.141Z,669.00
2023-11-30T03:48:06.242Z,667.00
2023-11-30T03:48:36.168Z,665.00
2023-11-30T03:49:06.163Z,669.00
2023-11-30T03:49:36.157Z,669.00
2023-11-30T03:50:36.236Z,668.00
2023-11-30T03:51:06.253Z,666.00
2023-11-30T03:51:36.293Z,665.00
2023-11-30T03:52:06.340Z,668.00
2023-11-30T03:52:36.390Z,666.00
2023-11-30T03:53:06.374Z,671.00
2023-11-30T03:53:36.375Z,674.00
2023-11-30T03:54:36.497Z,673.00
2023-11-30T03:55:06.567Z,673.00
2023-11-30T03:55:36.557Z,684.00
2023-11-30T03:56:36.637Z,668.00
2023-11-30T03:57:06.663Z,671.00
2023-11-30T03:57:36.703Z,670.00
2023-11-30T03:58:06.711Z,666.00
2023-11-30T03:58:36.832Z,668.00
2023-11-30T03:59:06.824Z,668.00
2023-11-30T03:59:36.835Z,670.00
2023-11-30T04:00:06.882Z,671.00
2023-11-30T04:00:36.939Z,671.00
2023-11-30T04:01:06.886Z,673.00
2023-11-30T04:01:36.968Z,672.00
2023-11-30T04:02:07.063Z,673.00
2023-11-30T04:02:37.070Z,670.00
2023-11-30T04:03:07.160Z,670.00
2023-11-30T04:03:37.193Z,673.00
2023-11-30T04:04:07.209Z,670.00
2023-11-30T04:04:37.305Z,673.00
2023-11-30T04:05:07.222Z,674.00
2023-11-30T04:05:37.312Z,667.00
2023-11-30T04:06:07.399Z,672.00
2023-11-30T04:06:37.401Z,673.00
2023-11-30T04:07:07.397Z,665.00
2023-11-30T04:07:37.395Z,664.00
2023-11-30T04:08:37.469Z,661.00
2023-11-30T04:09:07.492Z,656.00
2023-11-30T04:09:37.482Z,658.00
2023-11-30T04:10:07.583Z,655.00
2023-11-30T04:10:37.614Z,688.00
2023-11-30T04:11:07.615Z,669.00
2023-11-30T04:12:07.711Z,670.00
2023-11-30T04:12:37.689Z,671.00
2023-11-30T04:13:07.696Z,665.00
2023-11-30T04:14:07.783Z,657.00
2023-11-30T04:14:37.807Z,662.00
2023-11-30T04:15:07.842Z,663.00
2023-11-30T04:15:37.855Z,661.00
2023-11-30T04:16:07.878Z,661.00
2023-11-30T04:16:37.986Z,659.00
2023-11-30T04:17:08.128Z,671.00
2023-11-30T04:17:38.135Z,669.00
2023-11-30T04:18:08.296Z,665.00
2023-11-30T04:18:38.305Z,666.00
2023-11-30T04:19:08.366Z,673.00
2023-11-30T04:19:38.441Z,660.00
2023-11-30T04:20:08.553Z,665.00
2023-11-30T04:20:38.630Z,663.00
2023-11-30T04:21:08.714Z,664.00
2023-11-30T04:21:38.790Z,663.00
2023-11-30T04:22:08.871Z,658.00
2023-11-30T04:22:38.960Z,667.00
2023-11-30T04:23:09.032Z,660.00
2023-11-30T04:23:39.136Z,663.00
2023-11-30T04:24:09.238Z,664.00
2023-11-30T04:24:39.232Z,652.00
2023-11-30T04:25:09.306Z,659.00
2023-11-30T04:25:39.409Z,646.00
2023-11-30T04:26:09.482Z,654.00
2023-11-30T04:26:39.588Z,675.00
2023-11-30T04:27:09.622Z,662.00
2023-11-30T04:27:39.602Z,660.00
2023-11-30T04:28:09.603Z,658.00
2023-11-30T04:28:39.612Z,659.00
2023-11-30T04:29:09.614Z,660.00
2023-11-30T04:29:39.735Z,663.00
2023-11-30T04:30:09.750Z,660.00
2023-11-30T04:30:39.891Z,663.00
2023-11-30T04:31:09.909Z,664.00
2023-11-30T04:31:39.954Z,662.00
2023-11-30T04:32:09.940Z,661.00
2023-11-30T04:32:40.005Z,661.00
2023-11-30T04:33:10.088Z,660.00
2023-11-30T04:33:40.155Z,673.00
2023-11-30T04:34:10.172Z,660.00
2023-11-30T04:34:40.185Z,658.00
2023-11-30T04:35:10.176Z,657.00
2023-11-30T04:35:40.183Z,661.00
2023-11-30T04:36:10.199Z,663.00
2023-11-30T04:36:40.204Z,664.00
2023-11-30T04:37:10.186Z,663.00
2023-11-30T04:37:40.198Z,665.00
2023-11-30T04:38:10.205Z,660.00
2023-11-30T04:38:40.323Z,662.00
2023-11-30T04:39:10.408Z,665.00
2023-11-30T04:39:40.429Z,662.00
2023-11-30T04:40:10.424Z,665.00
2023-11-30T04:41:10.525Z,663.00
2023-11-30T04:41:40.509Z,656.00
2023-11-30T04:42:40.592Z,656.00
2023-11-30T04:43:10.697Z,653.00
2023-11-30T04:43:40.901Z,633.00
2023-11-30T04:44:10.793Z,651.00
2023-11-30T04:45:10.949Z,661.00
2023-11-30T04:45:41.006Z,657.00
2023-11-30T04:46:11.013Z,662.00
2023-11-30T04:46:41.082Z,664.00
2023-11-30T04:47:11.084Z,657.00
2023-11-30T04:47:41.236Z,649.00
2023-11-30T04:48:11.389Z,654.00
2023-11-30T04:48:42.492Z,661.00
2023-11-30T04:49:11.338Z,660.00
2023-11-30T04:49:41.342Z,646.00
2023-11-30T04:50:11.344Z,654.00
2023-11-30T04:50:41.345Z,641.00
2023-11-30T04:51:11.462Z,646.00
2023-11-30T04:51:41.358Z,652.00
2023-11-30T04:52:11.357Z,650.00
2023-11-30T04:52:41.371Z,655.00
2023-11-30T04:53:11.378Z,652.00
2023-11-30T04:53:41.392Z,657.00
2023-11-30T04:54:11.404Z,652.00
2023-11-30T04:54:41.553Z,655.00
2023-11-30T04:55:11.539Z,663.00
2023-11-30T04:55:41.539Z,664.00
2023-11-30T04:56:11.556Z,656.00
2023-11-30T04:56:41.676Z,655.00
2023-11-30T04:57:11.677Z,659.00
2023-11-30T04:58:11.776Z,668.00
2023-11-30T04:58:41.765Z,662.00
2023-11-30T04:59:11.765Z,662.00
2023-11-30T04:59:41.788Z,661.00
2023-11-30T05:00:11.782Z,659.00
2023-11-30T05:00:41.888Z,660.00
2023-11-30T05:01:11.909Z,661.00
2023-11-30T05:01:42.043Z,661.00
2023-11-30T05:02:12.073Z,658.00
2023-11-30T05:02:42.078Z,663.00
2023-11-30T05:03:42.267Z,681.00
2023-11-30T05:04:12.127Z,661.00
2023-11-30T05:04:42.302Z,668.00
2023-11-30T05:05:12.150Z,666.00
2023-11-30T05:05:42.137Z,665.00
2023-11-30T05:06:12.184Z,667.00
2023-11-30T05:06:42.323Z,667.00
2023-11-30T05:07:12.216Z,663.00
2023-11-30T05:08:14.114Z,657.00
2023-11-30T05:08:42.385Z,653.00
2023-11-30T05:09:12.407Z,663.00
2023-11-30T05:09:42.396Z,668.00
2023-11-30T05:10:12.397Z,670.00
2023-11-30T05:10:42.415Z,666.00
2023-11-30T05:11:42.485Z,668.00
2023-11-30T05:12:12.528Z,671.00
2023-11-30T05:12:42.517Z,671.00
2023-11-30T05:13:12.511Z,665.00
2023-11-30T05:13:42.528Z,668.00
2023-11-30T05:14:12.519Z,671.00
2023-11-30T05:14:42.530Z,674.00
2023-11-30T05:15:12.535Z,674.00
2023-11-30T05:15:43.783Z,676.00
2023-11-30T05:16:12.594Z,691.00
2023-11-30T05:16:42.633Z,684.00
2023-11-30T05:17:12.656Z,689.00
2023-11-30T05:17:43.424Z,695.00
2023-11-30T05:18:12.878Z,705.00
2023-11-30T05:19:12.904Z,701.00
2023-11-30T05:19:42.998Z,698.00
2023-11-30T05:20:13.075Z,702.00
2023-11-30T05:20:43.177Z,703.00
2023-11-30T05:21:13.281Z,701.00
2023-11-30T05:21:43.353Z,701.00
2023-11-30T05:22:13.418Z,705.00
2023-11-30T05:22:43.501Z,716.00
2023-11-30T05:23:13.581Z,705.00
2023-11-30T05:23:43.663Z,707.00
2023-11-30T05:24:13.760Z,707.00
2023-11-30T05:24:43.831Z,706.00
2023-11-30T05:25:13.907Z,707.00
2023-11-30T05:25:44.341Z,703.00
2023-11-30T05:26:14.064Z,701.00
2023-11-30T05:26:44.170Z,702.00
2023-11-30T05:27:14.320Z,722.00
2023-11-30T05:27:44.332Z,719.00
2023-11-30T05:28:14.324Z,710.00
2023-11-30T05:29:14.373Z,711.00
2023-11-30T05:29:44.378Z,715.00
2023-11-30T05:30:14.506Z,713.00
2023-11-30T05:30:44.477Z,712.00
2023-11-30T05:31:14.496Z,710.00
2023-11-30T05:31:44.484Z,713.00
2023-11-30T05:32:14.486Z,722.00
2023-11-30T05:33:14.623Z,719.00
2023-11-30T05:33:44.638Z,717.00
2023-11-30T05:34:14.629Z,714.00
2023-11-30T05:34:44.842Z,723.00
2023-11-30T05:35:14.742Z,724.00
2023-11-30T05:36:14.866Z,716.00
2023-11-30T05:36:44.852Z,723.00
2023-11-30T05:37:14.863Z,716.00
2023-11-30T05:37:44.870Z,729.00
2023-11-30T05:38:14.869Z,738.00
2023-11-30T05:38:44.872Z,738.00
2023-11-30T05:39:15.036Z,741.00
2023-11-30T05:39:45.059Z,735.00
2023-11-30T05:40:15.050Z,734.00
2023-11-30T05:40:45.162Z,730.00
2023-11-30T05:41:15.158Z,745.00
2023-11-30T05:41:45.173Z,761.00
2023-11-30T05:42:15.200Z,754.00
2023-11-30T05:42:45.192Z,757.00
2023-11-30T05:43:15.206Z,765.00
2023-11-30T05:43:45.250Z,770.00
2023-11-30T05:44:15.240Z,772.00
2023-11-30T05:44:45.258Z,777.00
2023-11-30T05:45:15.335Z,773.00
2023-11-30T05:45:45.343Z,768.00
2023-11-30T05:46:15.342Z,766.00
2023-11-30T05:46:47.934Z,769.00
2023-11-30T05:47:15.455Z,775.00
2023-11-30T05:48:15.594Z,784.00
2023-11-30T05:48:45.586Z,783.00
2023-11-30T05:49:15.678Z,794.00
2023-11-30T05:49:45.599Z,801.00
2023-11-30T05:50:45.676Z,793.00
2023-11-30T05:51:15.705Z,791.00
2023-11-30T05:51:45.721Z,791.00
2023-11-30T05:52:15.721Z,790.00
2023-11-30T05:52:45.724Z,795.00
2023-11-30T05:53:15.722Z,793.00
2023-11-30T05:53:45.784Z,794.00
2023-11-30T05:54:15.800Z,793.00
2023-11-30T05:54:45.877Z,794.00
2023-11-30T05:55:15.871Z,794.00
2023-11-30T05:55:45.875Z,794.00
2023-11-30T05:56:15.979Z,795.00
2023-11-30T05:56:45.989Z,796.00
2023-11-30T05:57:16.032Z,801.00
2023-11-30T05:57:46.085Z,805.00
2023-11-30T05:58:16.089Z,801.00
2023-11-30T05:58:46.132Z,799.00
2023-11-30T05:59:16.120Z,794.00
2023-11-30T06:00:16.331Z,798.00
2023-11-30T06:00:46.234Z,801.00
2023-11-30T06:01:16.247Z,802.00
2023-11-30T06:01:46.312Z,801.00
2023-11-30T06:02:16.287Z,801.00
2023-11-30T06:02:46.316Z,802.00
2023-11-30T06:03:16.468Z,798.00
2023-11-30T06:03:46.499Z,802.00
2023-11-30T06:04:16.480Z,805.00
2023-11-30T06:04:46.563Z,808.00
2023-11-30T06:05:16.724Z,810.00
2023-11-30T06:05:46.565Z,811.00
2023-11-30T06:06:16.572Z,811.00
2023-11-30T06:06:46.577Z,813.00
2023-11-30T06:07:16.587Z,813.00
2023-11-30T06:07:46.590Z,809.00
2023-11-30T06:08:16.591Z,813.00
2023-11-30T06:08:46.599Z,812.00
2023-11-30T06:09:16.621Z,815.00
2023-11-30T06:09:46.623Z,818.00
2023-11-30T06:10:16.629Z,814.00
2023-11-30T06:10:46.740Z,814.00
2023-11-30T06:11:16.756Z,811.00
2023-11-30T06:11:46.757Z,817.00
2023-11-30T06:12:16.946Z,818.00
2023-11-30T06:12:46.850Z,822.00
2023-11-30T06:13:46.927Z,820.00
2023-11-30T06:14:16.949Z,818.00
2023-11-30T06:15:17.020Z,824.00
2023-11-30T06:15:47.134Z,828.00
2023-11-30T06:16:17.044Z,833.00
2023-11-30T06:16:47.035Z,832.00
2023-11-30T06:17:17.129Z,815.00
2023-11-30T06:17:47.245Z,823.00
2023-11-30T06:18:17.235Z,821.00
2023-11-30T06:18:47.287Z,823.00
2023-11-30T06:19:17.365Z,826.00
2023-11-30T06:19:47.464Z,827.00
2023-11-30T06:20:17.543Z,828.00
2023-11-30T06:20:47.634Z,823.00
2023-11-30T06:21:17.732Z,826.00
2023-11-30T06:21:47.801Z,823.00
2023-11-30T06:22:17.907Z,825.00
2023-11-30T06:22:47.983Z,825.00
2023-11-30T06:23:18.062Z,825.00
2023-11-30T06:23:48.144Z,824.00
2023-11-30T06:24:18.317Z,825.00
2023-11-30T06:24:48.288Z,829.00
2023-11-30T06:25:18.358Z,832.00
2023-11-30T06:25:48.452Z,834.00
2023-11-30T06:26:18.557Z,832.00
2023-11-30T06:26:48.638Z,837.00
2023-11-30T06:27:18.684Z,835.00
2023-11-30T06:27:48.669Z,835.00
2023-11-30T06:28:18.668Z,835.00
2023-11-30T06:28:48.679Z,836.00
2023-11-30T06:29:18.710Z,834.00
2023-11-30T06:29:48.701Z,840.00
2023-11-30T06:30:48.823Z,842.00
2023-11-30T06:31:18.899Z,842.00
2023-11-30T06:31:48.887Z,840.00
2023-11-30T06:32:18.889Z,849.00
2023-11-30T06:32:48.961Z,845.00
2023-11-30T06:33:18.997Z,844.00
2023-11-30T06:33:49.028Z,845.00
2023-11-30T06:34:19.011Z,846.00
2023-11-30T06:34:49.023Z,843.00
2023-11-30T06:35:19.010Z,841.00
2023-11-30T06:35:49.100Z,845.00
2023-11-30T06:36:19.137Z,847.00
2023-11-30T06:36:49.126Z,846.00
2023-11-30T06:37:19.137Z,850.00